Hovedside
METAR-TAF:

METAR-TAF

Lufthavner :

Mariehamn lufthavn

Mariehamn, Finland

breddegrad: 60-07N, lengdegrad: 019-54E, høyde over havet: 6 m

Gjeldene værobservasjon

Denne rapporten ble laget for 31 minutter siden, klokken 14:50 UTC
Vind 8 kt fra Vest-nordvest, skiftende mellom Vest og Nord-nordvest
Temperatur 4°C
Luftfuktighet 87%
Trykk 1010 hPa
Sikt 10 km eller mer
Brutte skyer i en høyde av 1000 ft
lett regn

METAR: EFMA 141450Z AUTO 30008KT 260V340 9999 -RA BKN010 04/02 Q1010

Tid: 17:21 (15:21 UTC)

Varsel

Denne rapporten ble laget for 48 minutter siden, klokken 14:33 UTC
Varsel gyldig fra 14. klokken 15 UTC til 14. klokken 24 UTC
Vind 8 kt fra Vest
Sikt 10 km eller mer
Brutte skyer i en høyde av 800 ft
lett regn
Midlertidig
fra 14. klokken 15 UTC til 14. klokken 24 UTC
Sikt: 7000 m
Brutte skyer i en høyde av 1500 ft

TAF: EFMA 141433Z 1415/1424 28008KT 9999 -RA BKN008 TEMPO 1415/1424 7000 BKN015

Værobservasjoner og værvarsel for over 4000 flyplasser (METAR- og TAF-rapporter).

Tilgjengelige stasjoner er representert av de røde og gule prikkene på kartet.

Hold musepekeren over prikken for å se navnet på stasjonen.

Klikk så for å se værobservasjoner og -varsler.

For å forandre kartet kan du klikke på den grønne knappen med svart kryss for å zoome inn, på den grønne knappen med strek for å zoome ut, eller på de grønne pilene for å se tilstøtende kart.


METAR-TAF: